Time;durP1;ratioP1;P1;durP2;ratioP2;P2;SDS_P1;SDS_P2;PMS_P1;PMS_P2;Temp;Humidity;BMP_temperature;BMP_pressure;BME280_temperature;BME280_humidity;BME280_pressure;Samples;Min_cycle;Max_cycle;Signal;HPM_P1;HPM_P2
2023/01/03 00:01:51;;;;;;;28.38;18.10;;;;;;;8.32;87.78;100177.97;1776835;80;21198;-77
2023/01/03 00:04:19;;;;;;;27.13;17.92;;;;;;;8.38;87.41;100180.06;1797403;78;20994;-79
2023/01/03 00:06:48;;;;;;;28.42;19.65;;;;;;;8.30;87.32;100184.39;1779925;80;20954;-75
2023/01/03 00:09:18;;;;;;;26.05;19.05;;;;;;;8.23;87.40;100181.00;1775744;80;21020;-74
2023/01/03 00:14:36;;;;;;;25.15;17.45;;;;;;;8.27;87.07;100189.00;1782029;80;21258;-76
2023/01/03 00:17:04;;;;;;;20.92;14.68;;;;;;;8.19;87.15;100179.61;1787993;78;21068;-76
2023/01/03 00:19:34;;;;;;;20.92;15.40;;;;;;;8.18;87.24;100181.07;1785213;79;21051;-76
2023/01/03 00:22:01;;;;;;;22.17;15.58;;;;;;;8.22;87.02;100186.42;1770722;81;21041;-76
2023/01/03 00:24:28;;;;;;;24.07;16.20;;;;;;;8.20;86.99;100177.80;1794229;79;21004;-77
2023/01/03 00:26:55;;;;;;;22.77;16.42;;;;;;;8.13;87.10;100175.36;1786653;79;21145;-79
2023/01/03 00:29:22;;;;;;;22.25;15.93;;;;;;;8.15;87.18;100178.23;1770701;81;21546;-79
2023/01/03 00:31:49;;;;;;;22.22;15.48;;;;;;;8.20;86.89;100173.83;1771034;81;21019;-77
2023/01/03 00:34:16;;;;;;;20.43;14.87;;;;;;;8.15;86.97;100163.67;1775037;79;20976;-78
2023/01/03 00:36:42;;;;;;;20.85;15.13;;;;;;;8.11;87.07;100158.79;1794692;77;20961;-79
2023/01/03 00:39:10;;;;;;;20.02;14.35;;;;;;;8.04;87.15;100158.53;1805064;77;21078;-76
2023/01/03 00:41:38;;;;;;;18.12;14.33;;;;;;;8.06;87.23;100150.80;1799964;79;21052;-79
2023/01/03 00:44:05;;;;;;;20.23;15.75;;;;;;;8.12;86.94;100152.03;1802359;79;21024;-77
2023/01/03 00:46:31;;;;;;;21.50;15.05;;;;;;;8.08;86.94;100147.52;1802728;79;21024;-76
2023/01/03 00:48:58;;;;;;;19.42;14.38;;;;;;;7.99;87.10;100148.36;1797588;77;20968;-80
2023/01/03 00:51:27;;;;;;;18.62;14.53;;;;;;;7.94;87.42;100141.81;1794390;80;21410;-78
2023/01/03 00:53:56;;;;;;;28.30;13.80;;;;;;;8.00;87.25;100139.45;1783608;80;21039;-78
2023/01/03 00:56:26;;;;;;;19.40;15.00;;;;;;;7.96;87.29;100138.08;1781058;80;21040;-77
2023/01/03 00:58:52;;;;;;;21.12;14.83;;;;;;;7.87;87.52;100132.30;1787780;80;21013;-75
2023/01/03 01:01:23;;;;;;;20.55;14.98;;;;;;;7.82;87.82;100132.73;1793400;80;21280;-79
2023/01/03 01:03:55;;;;;;;20.60;15.28;;;;;;;7.86;87.69;100134.59;1785886;80;21130;-76
2023/01/03 01:06:27;;;;;;;21.87;15.25;;;;;;;7.79;87.73;100140.94;1761154;79;21035;-76
2023/01/03 01:08:55;;;;;;;17.27;14.20;;;;;;;7.71;88.27;100133.34;1766181;81;21017;-75
2023/01/03 01:11:23;;;;;;;26.05;17.42;;;;;;;7.76;88.10;100131.13;1763292;80;21052;-76
2023/01/03 01:13:50;;;;;;;25.23;16.95;;;;;;;7.74;88.19;100117.20;1791982;80;21021;-77
2023/01/03 01:16:20;;;;;;;24.02;16.00;;;;;;;7.67;88.30;100122.23;1787434;80;21231;-76
2023/01/03 01:18:48;;;;;;;22.32;15.30;;;;;;;7.63;88.64;100108.45;1762675;81;21024;-78
2023/01/03 01:21:19;;;;;;;24.40;15.55;;;;;;;7.68;88.47;100106.20;1761502;81;20981;-76
2023/01/03 01:23:45;;;;;;;18.87;15.25;;;;;;;7.69;88.38;100097.81;1752415;80;21009;-79
2023/01/03 01:26:16;;;;;;;21.35;14.43;;;;;;;7.62;88.53;100100.16;1780069;80;21009;-80
2023/01/03 01:30:12;;;;;;;19.77;14.00;;;;;;;7.67;88.63;100083.39;1860930;74;27060;-78
2023/01/03 01:32:39;;;;;;;21.40;15.93;;;;;;;7.62;88.57;100092.73;1859028;77;21016;-77
2023/01/03 01:35:07;;;;;;;19.20;14.78;;;;;;;7.58;88.73;100095.30;1863161;77;21215;-78
2023/01/03 01:37:33;;;;;;;21.37;15.08;;;;;;;7.62;88.74;100085.62;1882832;75;21133;-81
2023/01/03 01:40:00;;;;;;;18.10;14.05;;;;;;;7.68;88.61;100086.87;1897604;75;20943;-79
2023/01/03 01:45:12;;;;;;;26.02;14.43;;;;;;;7.61;88.62;100068.10;1844213;75;21616;-77
2023/01/03 01:47:52;;;;;;;16.90;14.50;;;;;;;7.66;88.56;100075.59;1846452;77;21299;-75
2023/01/03 01:50:43;;;;;;;20.45;16.30;;;;;;;7.73;88.25;100065.30;1825995;78;21273;-76
2023/01/03 01:53:23;;;;;;;18.85;14.40;;;;;;;7.67;88.20;100060.92;1825163;78;20989;-75
2023/01/03 01:55:59;;;;;;;19.10;13.63;;;;;;;7.71;88.23;100056.66;1826492;78;21051;-77
2023/01/03 01:58:28;;;;;;;20.08;15.10;;;;;;;7.74;88.12;100052.41;1845791;77;21044;-79
2023/01/03 02:00:55;;;;;;;21.93;15.00;;;;;;;7.71;88.06;100048.25;1829786;77;21971;-77
2023/01/03 02:03:22;;;;;;;20.08;15.15;;;;;;;7.72;88.06;100045.11;1828722;77;21028;-75
2023/01/03 02:05:51;;;;;;;20.85;14.70;;;;;;;7.76;87.93;100046.00;1847138;75;21183;-76
2023/01/03 02:08:20;;;;;;;18.55;15.15;;;;;;;7.71;88.00;100036.35;1836676;76;20993;-77
2023/01/03 02:11:01;;;;;;;17.82;14.07;;;;;;;7.67;88.21;100039.77;1862390;77;20974;-78
2023/01/03 02:13:52;;;;;;;20.00;14.70;;;;;;;7.72;88.31;100034.53;1864060;77;21238;-75
2023/01/03 02:17:04;;;;;;;17.25;14.50;;;;;;;7.71;88.23;100036.35;1856693;75;20996;-76
2023/01/03 02:20:05;;;;;;;17.87;13.78;;;;;;;7.63;88.58;100022.52;1860200;77;20977;-77
2023/01/03 02:22:52;;;;;;;15.33;13.33;;;;;;;7.71;88.36;100016.98;1850287;77;21013;-75
2023/01/03 02:25:58;;;;;;;17.50;13.08;;;;;;;7.66;88.58;100020.06;1857427;77;20996;-78
2023/01/03 02:29:19;;;;;;;19.65;13.25;;;;;;;7.64;88.56;100010.13;1858684;77;21216;-78
2023/01/03 02:32:06;;;;;;;16.57;13.55;;;;;;;7.67;88.54;100001.42;1856580;77;21015;-78
2023/01/03 02:34:43;;;;;;;19.45;13.72;;;;;;;7.61;88.77;100003.32;1820032;75;21008;-77
2023/01/03 02:37:30;;;;;;;17.15;12.63;;;;;;;7.63;89.06;99997.40;1832093;75;21212;-75
2023/01/03 02:40:34;;;;;;;17.02;14.03;;;;;;;7.75;89.01;100001.20;1825025;77;20991;-84
2023/01/03 02:43:34;;;;;;;16.42;13.72;;;;;;;7.75;88.68;99994.09;1824865;78;21904;-77
2023/01/03 02:46:09;;;;;;;16.65;13.48;;;;;;;7.74;88.55;99994.23;1821769;77;21010;-81
2023/01/03 02:48:58;;;;;;;18.42;13.72;;;;;;;7.78;88.37;99998.25;1836775;77;21025;-80
2023/01/03 02:51:33;;;;;;;17.40;13.65;;;;;;;7.72;88.38;99990.90;1826677;75;21573;-79
2023/01/03 02:54:02;;;;;;;18.00;13.62;;;;;;;7.65;88.75;99990.66;1833043;75;21050;-80
2023/01/03 02:56:37;;;;;;;18.90;14.20;;;;;;;7.68;88.62;99987.20;1828175;77;21268;-78
2023/01/03 02:59:07;;;;;;;19.98;14.10;;;;;;;7.62;88.91;99974.56;1821189;78;20980;-79
2023/01/03 03:01:36;;;;;;;16.42;13.22;;;;;;;7.57;89.07;99985.22;1842453;77;21006;-79
2023/01/03 03:04:02;;;;;;;18.50;13.15;;;;;;;7.61;89.25;99979.52;1855859;77;21062;-79
2023/01/03 03:06:37;;;;;;;19.10;13.72;;;;;;;7.64;89.17;99983.69;1857156;77;20857;-78
2023/01/03 03:09:04;;;;;;;16.93;12.53;;;;;;;7.60;89.39;99982.30;1826574;78;21085;-76
2023/01/03 03:14:42;;;;;;;18.10;13.75;;;;;;;7.63;89.53;99988.14;1832471;77;21046;-80
2023/01/03 03:17:14;;;;;;;18.60;14.13;;;;;;;7.59;89.66;99994.70;1828079;77;21027;-77
2023/01/03 03:25:58;;;;;;;18.55;14.73;;;;;;;7.60;89.75;99977.84;1850957;76;21039;-77
2023/01/03 03:28:34;;;;;;;16.48;13.43;;;;;;;7.56;89.79;99968.53;1855431;77;21639;-77
2023/01/03 03:31:13;;;;;;;16.62;14.07;;;;;;;7.58;89.70;99978.97;1832320;77;21495;-76
2023/01/03 03:33:59;;;;;;;17.70;14.07;;;;;;;7.49;89.90;99967.43;1818510;78;21514;-76
2023/01/03 03:36:55;;;;;;;17.75;14.45;;;;;;;7.46;89.94;99957.98;1821687;78;21124;-77
2023/01/03 03:45:23;;;;;;;17.98;13.75;;;;;;;7.35;90.50;99955.99;1808955;77;21094;-77
2023/01/03 03:48:06;;;;;;;18.73;14.75;;;;;;;7.30;90.46;99956.40;1835602;77;21022;-78
2023/01/03 03:51:07;;;;;;;17.55;14.00;;;;;;;7.19;90.84;99957.41;1812680;79;21259;-77
2023/01/03 03:53:35;;;;;;;21.87;16.37;;;;;;;7.18;90.98;99953.08;1819555;76;21060;-76
2023/01/03 03:56:08;;;;;;;22.37;15.13;;;;;;;7.18;91.15;99944.33;1850940;77;20985;-76
2023/01/03 03:58:48;;;;;;;17.17;14.38;;;;;;;7.10;91.10;99942.39;1846354;76;21002;-76
2023/01/03 04:01:18;;;;;;;17.67;14.53;;;;;;;7.06;91.30;99943.16;1843756;77;21078;-74
2023/01/03 04:03:44;;;;;;;20.48;15.38;;;;;;;7.09;91.09;99944.70;1838547;76;21136;-76
2023/01/03 04:06:28;;;;;;;21.15;16.15;;;;;;;6.98;91.44;99948.80;1819158;79;20974;-76
2023/01/03 04:08:54;;;;;;;18.62;14.87;;;;;;;6.94;91.72;99939.00;1818171;79;21496;-75
2023/01/03 04:11:21;;;;;;;17.87;15.45;;;;;;;6.95;91.61;99930.58;1822240;79;20995;-75
2023/01/03 04:13:48;;;;;;;23.35;18.20;;;;;;;6.92;91.61;99936.98;1818497;79;21525;-72
2023/01/03 04:16:14;;;;;;;22.15;15.50;;;;;;;6.83;91.79;99948.38;1826976;77;21084;-73
2023/01/03 04:18:41;;;;;;;22.85;15.35;;;;;;;6.77;92.30;99949.77;1821380;77;20979;-74
2023/01/03 04:21:07;;;;;;;22.30;17.17;;;;;;;6.81;92.07;99945.88;1841338;76;21072;-73
2023/01/03 04:23:34;;;;;;;19.12;15.65;;;;;;;6.78;91.95;99951.45;1818863;77;21590;-74
2023/01/03 04:26:01;;;;;;;19.70;14.68;;;;;;;6.69;92.18;99945.67;1831050;76;21058;-73
2023/01/03 04:28:28;;;;;;;17.80;13.98;;;;;;;6.66;92.24;99939.34;1832770;76;21170;-74
2023/01/03 04:30:55;;;;;;;17.37;14.40;;;;;;;6.69;92.17;99934.63;1851531;77;21027;-72
2023/01/03 04:33:21;;;;;;;18.48;13.60;;;;;;;6.67;92.14;99926.50;1850348;77;21045;-75
2023/01/03 04:35:48;;;;;;;17.85;14.80;;;;;;;6.60;92.28;99930.16;1852071;77;21027;-76
2023/01/03 04:38:16;;;;;;;17.98;14.18;;;;;;;6.66;92.11;99933.59;1843129;77;21034;-73
2023/01/03 04:40:43;;;;;;;16.90;14.33;;;;;;;6.67;92.00;99931.28;1855486;77;21090;-75
2023/01/03 04:45:56;;;;;;;18.75;14.68;;;;;;;6.57;92.21;99926.98;1820920;77;21010;-73
2023/01/03 04:48:23;;;;;;;18.25;13.72;;;;;;;6.64;91.97;99920.16;1824258;76;21004;-77
2023/01/03 04:50:57;;;;;;;20.48;15.78;;;;;;;6.60;91.87;99926.70;1836467;77;21003;-78
2023/01/03 04:53:25;;;;;;;17.42;13.93;;;;;;;6.50;92.02;99924.87;1841660;76;21326;-77
2023/01/03 04:55:52;;;;;;;18.75;13.78;;;;;;;6.46;92.11;99918.20;1821606;77;21003;-78
2023/01/03 04:58:19;;;;;;;16.37;14.05;;;;;;;6.48;91.98;99925.50;1820426;76;21082;-78
2023/01/03 05:00:46;;;;;;;16.65;13.72;;;;;;;6.41;92.17;99929.67;1829988;76;21182;-77
2023/01/03 05:03:13;;;;;;;19.05;13.28;;;;;;;6.32;92.43;99915.12;1818944;77;21514;-75
2023/01/03 05:05:39;;;;;;;16.87;13.58;;;;;;;6.35;92.45;99913.54;1842251;77;21495;-77
2023/01/03 05:08:09;;;;;;;18.00;14.45;;;;;;;6.37;92.43;99908.46;1842367;76;20990;-77
2023/01/03 05:10:38;;;;;;;19.98;14.98;;;;;;;6.29;92.58;99910.95;1823264;77;20920;-77
2023/01/03 05:13:05;;;;;;;16.62;13.95;;;;;;;6.25;92.76;99906.93;1821522;76;20991;-75
2023/01/03 05:15:35;;;;;;;17.12;14.25;;;;;;;6.28;92.71;99900.08;1818597;76;21010;-76
2023/01/03 05:18:02;;;;;;;18.15;14.38;;;;;;;6.22;93.04;99899.27;1826839;76;21136;-77
2023/01/03 05:26:05;;;;;;;18.07;14.50;;;;;;;6.29;93.49;99893.31;1818874;76;21082;-77
2023/01/03 05:28:32;;;;;;;17.67;13.20;;;;;;;6.24;93.66;99897.36;1818671;79;21541;-76
2023/01/03 05:30:59;;;;;;;17.12;13.25;;;;;;;6.28;93.87;99890.84;1813145;77;21264;-78
2023/01/03 05:33:25;;;;;;;16.95;14.33;;;;;;;6.38;93.64;99894.31;1793272;80;21062;-79
2023/01/03 05:35:52;;;;;;;15.20;13.13;;;;;;;6.41;93.45;99886.14;1796940;78;21048;-78
2023/01/03 05:38:18;;;;;;;16.32;13.58;;;;;;;6.38;93.57;99886.40;1797301;78;21004;-78
2023/01/03 05:40:45;;;;;;;18.45;14.23;;;;;;;6.42;93.61;99883.83;1810426;78;20976;-73
2023/01/03 05:43:12;;;;;;;16.90;13.43;;;;;;;6.53;93.29;99888.62;1794253;78;21104;-72
2023/01/03 05:45:38;;;;;;;18.02;13.68;;;;;;;6.53;93.27;99891.26;1797539;78;21032;-76
2023/01/03 05:48:06;;;;;;;21.57;15.55;;;;;;;6.57;92.95;99890.03;1781721;80;21089;-75
2023/01/03 05:50:33;;;;;;;20.02;14.95;;;;;;;6.66;92.64;99889.17;1780315;79;22063;-74
2023/01/03 05:53:00;;;;;;;15.45;12.95;;;;;;;6.62;92.60;99895.71;1741931;80;21114;-74
2023/01/03 05:55:26;;;;;;;15.13;12.50;;;;;;;6.61;92.46;99884.33;1754399;80;21101;-75
2023/01/03 05:57:53;;;;;;;14.68;13.13;;;;;;;6.70;92.19;99878.68;1772461;79;21189;-73
2023/01/03 06:00:20;;;;;;;14.68;12.40;;;;;;;6.66;92.17;99884.75;1779897;80;21550;-71
2023/01/03 06:02:48;;;;;;;14.35;12.00;;;;;;;6.65;92.15;99884.39;1783150;80;21542;-70
2023/01/03 06:05:15;;;;;;;17.35;14.10;;;;;;;6.73;92.00;99891.61;1763479;80;21073;-74
2023/01/03 06:07:41;;;;;;;19.37;13.62;;;;;;;6.71;91.82;99892.24;1777612;80;21544;-74
2023/01/03 06:10:09;;;;;;;16.73;13.20;;;;;;;6.66;91.85;99886.53;1771769;79;21084;-74
2023/01/03 06:12:35;;;;;;;16.90;13.78;;;;;;;6.68;91.77;99895.15;1762725;80;21030;-74
2023/01/03 06:15:03;;;;;;;21.17;16.45;;;;;;;6.72;91.53;99888.61;1771924;79;21013;-74
2023/01/03 06:20:15;;;;;;;18.87;14.38;;;;;;;6.61;91.70;99882.18;1781560;79;21228;-74
2023/01/03 06:22:42;;;;;;;16.15;13.70;;;;;;;6.66;91.65;99874.66;1765837;80;21086;-73
2023/01/03 06:25:08;;;;;;;17.32;13.78;;;;;;;6.69;91.46;99881.81;1742619;81;21056;-74
2023/01/03 06:27:35;;;;;;;17.65;14.03;;;;;;;6.63;91.57;99876.27;1770279;81;21047;-73
2023/01/03 06:30:03;;;;;;;16.55;12.93;;;;;;;6.57;91.85;99893.50;1763603;79;21101;-75
2023/01/03 06:32:30;;;;;;;18.77;14.63;;;;;;;6.64;91.67;99880.07;1785055;79;21124;-72
2023/01/03 06:34:57;;;;;;;17.45;14.45;;;;;;;6.67;91.50;99882.94;1777366;79;20978;-72
2023/01/03 06:37:24;;;;;;;16.82;13.68;;;;;;;6.59;91.70;99882.31;1785421;79;21013;-73
2023/01/03 06:39:50;;;;;;;21.40;15.60;;;;;;;6.56;91.87;99889.67;1803001;79;21049;-73
2023/01/03 06:53:25;;;;;;;18.23;14.33;;;;;;;6.57;91.83;99884.75;1751195;81;21084;-77
2023/01/03 06:55:52;;;;;;;20.82;14.65;;;;;;;6.65;91.53;99885.71;1785523;79;21119;-76
2023/01/03 06:58:18;;;;;;;18.92;14.47;;;;;;;6.60;91.60;99901.13;1785204;79;21276;-74
2023/01/03 07:00:45;;;;;;;18.05;14.50;;;;;;;6.64;91.62;99885.84;1792395;79;21017;-75
2023/01/03 07:03:11;;;;;;;21.02;15.25;;;;;;;6.69;91.32;99912.17;1790008;79;21501;-76
2023/01/03 07:05:39;;;;;;;17.98;14.30;;;;;;;6.66;91.19;99910.30;1772265;79;21570;-75
2023/01/03 07:08:07;;;;;;;21.05;15.80;;;;;;;6.59;91.15;99913.16;1770535;80;21107;-75
2023/01/03 07:10:33;;;;;;;16.23;13.32;;;;;;;6.60;91.09;99902.94;1772250;79;21536;-76
2023/01/03 07:15:45;;;;;;;20.77;15.72;;;;;;;6.62;90.72;99920.79;1790550;79;21013;-76
2023/01/03 07:18:12;;;;;;;17.55;13.30;;;;;;;6.54;90.90;99927.25;1795165;79;21001;-74
2023/01/03 07:20:42;;;;;;;16.02;14.13;;;;;;;6.55;90.86;99927.58;1770850;79;21047;-75
2023/01/03 07:23:10;;;;;;;20.10;15.68;;;;;;;6.55;90.85;99928.91;1770277;81;21497;-75
2023/01/03 07:25:40;;;;;;;16.80;14.38;;;;;;;6.47;91.01;99933.55;1770154;81;20989;-76
2023/01/03 07:28:05;;;;;;;18.92;15.60;;;;;;;6.52;90.88;99928.70;1774999;79;21571;-76
2023/01/03 07:30:39;;;;;;;17.90;15.20;;;;;;;6.50;90.82;99936.75;1788249;78;21026;-76
2023/01/03 07:33:08;;;;;;;16.32;13.85;;;;;;;6.46;91.07;99938.00;1770496;80;20966;-76
2023/01/03 07:35:36;;;;;;;17.37;13.50;;;;;;;6.50;91.29;99945.98;1771872;79;21220;-76
2023/01/03 07:38:03;;;;;;;17.10;14.63;;;;;;;6.62;91.23;99949.83;1771947;80;21003;-74
2023/01/03 07:40:31;;;;;;;18.65;14.40;;;;;;;6.67;91.26;99954.22;1781642;78;20974;-77
2023/01/03 07:45:43;;;;;;;13.93;11.35;;;;;;;6.81;91.13;99952.48;1798578;79;21010;-76
2023/01/03 07:48:10;;;;;;;15.93;12.78;;;;;;;6.96;90.72;99944.16;1770188;81;21849;-75
2023/01/03 07:50:38;;;;;;;16.07;12.23;;;;;;;6.99;90.54;99962.34;1769951;81;20984;-77
2023/01/03 07:53:07;;;;;;;16.12;12.40;;;;;;;7.01;90.41;99958.61;1770337;81;21525;-77
2023/01/03 07:55:35;;;;;;;16.48;12.68;;;;;;;7.15;89.96;99963.13;1770364;79;21033;-76
2023/01/03 07:58:01;;;;;;;13.88;11.68;;;;;;;7.22;89.56;99951.00;1770143;81;21129;-75
2023/01/03 08:00:29;;;;;;;15.25;12.73;;;;;;;7.20;89.60;99947.16;1770071;81;21122;-75
2023/01/03 08:02:56;;;;;;;15.95;12.58;;;;;;;7.22;89.58;99949.67;1770172;80;21064;-74
2023/01/03 08:05:23;;;;;;;15.98;13.20;;;;;;;7.32;89.24;99937.77;1770426;79;21037;-74
2023/01/03 08:07:51;;;;;;;14.63;12.55;;;;;;;7.34;89.16;99943.73;1770421;81;21050;-75
2023/01/03 08:13:19;;;;;;;13.18;11.78;;;;;;;7.35;89.06;99948.06;1790148;80;21139;-75
2023/01/03 08:15:54;;;;;;;14.23;12.40;;;;;;;7.44;88.73;99944.08;1788531;79;21004;-77
2023/01/03 08:18:24;;;;;;;17.00;13.35;;;;;;;7.42;88.60;99953.14;1797898;79;21040;-76
2023/01/03 08:20:54;;;;;;;18.02;13.08;;;;;;;7.36;88.70;99949.72;1802058;79;20993;-75
2023/01/03 08:23:23;;;;;;;12.78;11.40;;;;;;;7.37;88.82;99948.75;1775963;79;21101;-75
2023/01/03 08:25:50;;;;;;;14.70;13.20;;;;;;;7.44;88.68;99961.75;1770138;81;21305;-76
2023/01/03 08:28:18;;;;;;;14.80;12.35;;;;;;;7.43;88.77;99971.47;1770609;81;21482;-76
2023/01/03 08:30:48;;;;;;;16.42;12.85;;;;;;;7.42;88.99;99965.03;1793152;79;21002;-74
2023/01/03 08:33:17;;;;;;;15.50;11.63;;;;;;;7.51;88.94;99960.19;1791050;79;21068;-75
2023/01/03 08:35:49;;;;;;;16.10;12.90;;;;;;;7.69;88.51;99943.11;1780040;80;21041;-75
2023/01/03 08:38:20;;;;;;;16.62;13.38;;;;;;;7.75;88.12;99949.63;1780155;80;21229;-77
2023/01/03 08:40:48;;;;;;;15.38;12.85;;;;;;;7.78;87.81;99955.44;1799625;79;21003;-76
2023/01/03 08:43:15;;;;;;;14.28;11.40;;;;;;;7.84;87.51;99956.67;1803405;79;21043;-77
2023/01/03 08:45:41;;;;;;;14.38;12.30;;;;;;;7.97;86.97;99959.83;1770265;81;21037;-75
2023/01/03 08:48:08;;;;;;;16.40;12.75;;;;;;;8.07;86.63;99951.38;1799579;79;21020;-75
2023/01/03 08:50:35;;;;;;;16.57;12.68;;;;;;;8.12;86.49;99947.45;1771302;79;21149;-76
2023/01/03 08:53:04;;;;;;;15.93;12.60;;;;;;;8.19;86.17;99942.75;1779798;80;21531;-76
2023/01/03 08:55:32;;;;;;;16.30;13.65;;;;;;;8.42;85.85;99950.28;1750658;80;21046;-75
2023/01/03 08:57:59;;;;;;;16.40;13.85;;;;;;;8.51;85.03;99944.10;1763921;81;21064;-76
2023/01/03 09:00:27;;;;;;;14.75;13.10;;;;;;;8.55;84.78;99945.97;1763850;81;21047;-77
2023/01/03 09:03:00;;;;;;;15.63;12.85;;;;;;;8.62;84.87;99939.92;1763577;81;21048;-76
2023/01/03 09:05:28;;;;;;;13.95;11.55;;;;;;;8.83;83.98;99946.24;1800598;79;21544;-78
2023/01/03 09:07:54;;;;;;;16.25;12.80;;;;;;;8.94;83.42;99946.98;1793844;79;21039;-77
2023/01/03 09:10:23;;;;;;;15.90;13.83;;;;;;;9.03;83.26;99939.45;1802077;79;21005;-75
2023/01/03 09:12:50;;;;;;;14.75;11.78;;;;;;;9.25;82.87;99939.44;1782617;79;20965;-76
2023/01/03 09:15:17;;;;;;;14.10;10.85;;;;;;;9.57;81.69;99936.69;1783473;79;21282;-75
2023/01/03 09:17:46;;;;;;;14.35;11.85;;;;;;;9.79;80.10;99949.42;1780766;80;21531;-76
2023/01/03 09:20:13;;;;;;;14.45;11.48;;;;;;;9.96;80.01;99948.98;1779962;80;21040;-76
2023/01/03 09:22:40;;;;;;;14.03;12.07;;;;;;;10.14;79.40;99949.38;1779963;80;21072;-76
2023/01/03 09:25:08;;;;;;;13.25;11.75;;;;;;;10.35;78.60;99944.53;1780656;79;21009;-77
2023/01/03 09:27:35;;;;;;;14.05;11.33;;;;;;;10.49;77.78;99946.20;1779827;80;21713;-75
2023/01/03 09:30:02;;;;;;;17.15;12.98;;;;;;;10.67;76.80;99934.95;1779721;79;20997;-75
2023/01/03 09:32:29;;;;;;;15.43;12.25;;;;;;;10.91;76.24;99942.11;1783281;80;21055;-75
2023/01/03 09:34:55;;;;;;;13.78;12.37;;;;;;;11.07;75.34;99932.00;1783725;80;21095;-76
2023/01/03 09:37:22;;;;;;;15.50;12.65;;;;;;;11.17;74.88;99928.66;1783609;80;21048;-78
2023/01/03 09:39:49;;;;;;;14.73;11.97;;;;;;;11.29;74.30;99926.48;1783844;79;21523;-76
2023/01/03 09:45:22;;;;;;;13.03;11.45;;;;;;;11.70;73.32;99921.07;1789944;79;20942;-76
2023/01/03 09:47:49;;;;;;;16.17;11.68;;;;;;;11.79;72.18;99920.56;1819110;79;20949;-77
2023/01/03 09:50:22;;;;;;;14.68;11.25;;;;;;;11.73;72.44;99913.27;1790650;79;21024;-76
2023/01/03 10:04:25;;;;;;;12.25;10.98;;;;;;;12.63;69.95;99915.48;1784138;80;21013;-76
2023/01/03 10:07:26;;;;;;;11.68;10.48;;;;;;;12.88;69.12;99910.80;1749695;80;21275;-75
2023/01/03 10:10:04;;;;;;;15.23;11.57;;;;;;;12.96;68.74;99912.58;1784165;80;21467;-74
2023/01/03 10:12:58;;;;;;;13.20;10.48;;;;;;;13.15;68.23;99902.77;1784230;79;21334;-76
2023/01/03 10:15:48;;;;;;;12.20;10.95;;;;;;;13.39;67.18;99899.56;1788414;80;20996;-75
2023/01/03 10:18:47;;;;;;;12.70;10.72;;;;;;;13.55;66.85;99898.55;1771950;80;21009;-76
2023/01/03 10:21:43;;;;;;;16.35;11.95;;;;;;;13.72;66.27;99906.70;1787471;80;21106;-77
2023/01/03 10:24:21;;;;;;;14.03;10.75;;;;;;;13.70;66.06;99907.91;1795562;79;21028;-76
2023/01/03 10:26:51;;;;;;;11.35;10.20;;;;;;;13.74;65.51;99926.03;1816312;79;21023;-74
2023/01/03 10:29:17;;;;;;;12.00;10.60;;;;;;;13.78;65.15;99911.81;1814681;79;21028;-75
2023/01/03 10:32:06;;;;;;;13.28;10.90;;;;;;;13.89;65.05;99912.68;1777819;78;21044;-78
2023/01/03 10:34:37;;;;;;;13.90;10.90;;;;;;;13.91;64.59;99921.85;1770419;80;21045;-76
2023/01/03 10:37:12;;;;;;;14.87;11.30;;;;;;;13.68;65.06;99919.27;1770611;79;21030;-74
2023/01/03 10:39:40;;;;;;;13.40;10.88;;;;;;;13.38;65.84;99927.23;1770138;80;21023;-75
2023/01/03 10:42:08;;;;;;;13.22;11.25;;;;;;;13.22;66.45;99925.53;1770411;81;21085;-74
2023/01/03 10:44:34;;;;;;;14.75;10.70;;;;;;;13.24;66.84;99940.03;1750175;80;20935;-74
2023/01/03 10:47:09;;;;;;;13.70;11.03;;;;;;;13.27;66.72;99940.98;1788667;79;21180;-76
2023/01/03 10:49:38;;;;;;;17.70;11.65;;;;;;;13.27;66.54;99932.98;1804063;79;20998;-76
2023/01/03 10:52:15;;;;;;;12.80;11.50;;;;;;;13.29;66.38;99939.81;1752200;79;21056;-74
2023/01/03 10:54:57;;;;;;;14.10;11.80;;;;;;;13.17;66.75;99950.09;1802354;79;21043;-76
2023/01/03 10:57:47;;;;;;;14.68;10.78;;;;;;;12.96;67.15;99942.76;1778300;79;21508;-75
2023/01/03 11:00:26;;;;;;;12.30;11.00;;;;;;;12.79;67.79;99943.38;1801870;79;21787;-74
2023/01/03 11:02:55;;;;;;;21.15;16.90;;;;;;;12.72;67.96;99945.59;1788188;79;20993;-74
2023/01/03 11:05:24;;;;;;;13.35;11.78;;;;;;;12.57;68.47;99946.37;1792448;79;21532;-76
2023/01/03 11:07:59;;;;;;;12.28;10.55;;;;;;;12.47;68.94;99940.92;1802280;79;21116;-75
2023/01/03 11:10:40;;;;;;;13.30;11.33;;;;;;;12.35;69.25;99943.16;1802154;79;21074;-74
2023/01/03 11:13:39;;;;;;;13.35;10.63;;;;;;;12.14;69.72;99945.91;1768955;81;21232;-75
2023/01/03 11:16:16;;;;;;;15.63;11.57;;;;;;;12.09;70.15;99954.08;1774466;78;21158;-75
2023/01/03 11:18:46;;;;;;;15.35;11.78;;;;;;;12.00;70.59;99949.30;1773359;81;20998;-75
2023/01/03 11:21:22;;;;;;;15.88;11.48;;;;;;;11.88;70.94;99950.63;1766269;81;21506;-75
2023/01/03 11:24:00;;;;;;;14.30;11.00;;;;;;;11.69;71.37;99953.20;1782221;79;21104;-76
2023/01/03 11:26:51;;;;;;;18.45;11.30;;;;;;;11.57;71.89;99958.02;1751671;81;20998;-78
2023/01/03 11:29:43;;;;;;;14.78;12.33;;;;;;;11.51;72.17;99954.23;1753755;81;20969;-76
2023/01/03 11:32:39;;;;;;;15.85;11.50;;;;;;;11.43;72.60;99959.55;1733978;82;21057;-76
2023/01/03 11:35:16;;;;;;;13.03;11.48;;;;;;;11.34;72.90;99965.39;1767955;79;21010;-76
2023/01/03 11:38:18;;;;;;;13.22;11.00;;;;;;;11.32;73.18;99963.40;1768448;81;21033;-76
2023/01/03 11:41:13;;;;;;;16.57;11.50;;;;;;;11.35;73.32;99959.56;1787985;79;21138;-77
2023/01/03 11:44:04;;;;;;;14.05;11.25;;;;;;;11.25;73.49;99971.70;1796554;79;21052;-77
2023/01/03 11:46:54;;;;;;;14.68;12.20;;;;;;;11.21;73.72;99975.19;1761484;80;20960;-77
2023/01/03 11:49:42;;;;;;;12.88;11.28;;;;;;;11.18;73.84;99972.88;1768478;80;21088;-75
2023/01/03 11:52:41;;;;;;;14.15;12.35;;;;;;;11.19;73.80;99978.52;1778418;80;21458;-77
2023/01/03 11:55:48;;;;;;;14.47;11.35;;;;;;;11.15;73.82;99983.84;1764585;81;21234;-76
2023/01/03 11:58:45;;;;;;;14.00;12.50;;;;;;;11.15;73.78;99979.03;1795944;79;21025;-77
2023/01/03 12:01:47;;;;;;;14.87;11.18;;;;;;;11.17;73.77;99989.82;1766482;80;21061;-75
2023/01/03 12:04:31;;;;;;;15.65;11.22;;;;;;;11.11;74.03;99985.17;1768691;81;21061;-78
2023/01/03 12:07:09;;;;;;;17.32;12.13;;;;;;;11.06;73.86;99978.69;1787101;79;21016;-77
2023/01/03 12:09:58;;;;;;;15.48;11.95;;;;;;;10.99;73.97;99967.39;1773655;79;21104;-79
2023/01/03 12:12:51;;;;;;;12.50;10.70;;;;;;;11.00;74.02;99967.70;1799269;79;21092;-78
2023/01/03 12:15:46;;;;;;;14.85;10.68;;;;;;;11.04;73.91;99960.23;1799380;79;20998;-75
2023/01/03 12:18:33;;;;;;;16.70;11.60;;;;;;;11.14;73.81;99967.53;1791154;79;20932;-76
2023/01/03 12:21:06;;;;;;;14.75;11.30;;;;;;;11.28;73.55;99970.53;1767308;80;21520;-75
2023/01/03 12:23:44;;;;;;;15.60;12.23;;;;;;;11.30;73.56;99969.86;1780400;79;21812;-76
2023/01/03 12:26:13;;;;;;;15.28;11.63;;;;;;;11.33;73.42;99961.05;1795910;79;21061;-75
2023/01/03 12:28:55;;;;;;;15.58;12.40;;;;;;;11.37;73.37;99969.02;1776324;79;20983;-77
2023/01/03 12:31:40;;;;;;;13.72;12.18;;;;;;;11.39;72.98;99969.69;1800341;78;21069;-76
2023/01/03 12:34:33;;;;;;;14.18;11.83;;;;;;;11.36;73.05;99969.22;1811541;79;20963;-75
2023/01/03 12:37:14;;;;;;;14.90;11.57;;;;;;;11.30;72.96;99968.06;1812207;79;21138;-75
2023/01/03 12:40:17;;;;;;;14.10;11.35;;;;;;;11.37;73.06;99966.88;1809427;79;21069;-76
2023/01/03 12:43:02;;;;;;;15.63;12.07;;;;;;;11.45;72.86;99962.05;1811908;79;25571;-77
2023/01/03 12:45:37;;;;;;;14.98;11.95;;;;;;;11.41;72.52;99967.72;1811259;79;21073;-76
2023/01/03 12:48:12;;;;;;;14.23;11.75;;;;;;;11.34;72.54;99970.71;1813588;79;21018;-76
2023/01/03 12:50:49;;;;;;;14.23;11.78;;;;;;;11.27;72.74;99964.39;1815358;79;21216;-76
2023/01/03 12:53:25;;;;;;;14.75;12.45;;;;;;;11.20;72.74;99972.22;1815760;79;21023;-76
2023/01/03 12:56:05;;;;;;;16.80;12.28;;;;;;;11.15;72.87;99986.50;1812030;79;21002;-76
2023/01/03 12:59:18;;;;;;;14.93;11.85;;;;;;;11.14;72.96;99986.16;1812146;79;21627;-75